Time;durP1;ratioP1;P1;durP2;ratioP2;P2;SDS_P1;SDS_P2;PMS_P1;PMS_P2;Temp;Humidity;BMP_temperature;BMP_pressure;BME280_temperature;BME280_humidity;BME280_pressure;Samples;Min_cycle;Max_cycle;Signal;HPM_P1;HPM_P2
2024/04/13 00:02:06;;;;;;;15.13;11.10;;;;;;;;;;5583894;25;20554;-75
2024/04/13 00:04:31;;;;;;;11.90;10.07;;;;;;;;;;5596744;25;20470;-74
2024/04/13 00:06:59;;;;;;;11.93;10.10;;;;;;;;;;5598188;25;20474;-74
2024/04/13 00:09:27;;;;;;;16.83;10.50;;;;;;;;;;5596887;25;20270;-74
2024/04/13 00:11:55;;;;;;;14.40;11.13;;;;;;;;;;5584731;25;20471;-74
2024/04/13 00:14:21;;;;;;;11.13;9.87;;;;;;;;;;5583645;25;20459;-74
2024/04/13 00:16:49;;;;;;;16.77;10.87;;;;;;;;;;5592829;25;20980;-73
2024/04/13 00:19:15;;;;;;;23.23;11.67;;;;;;;;;;5581877;25;20261;-74
2024/04/13 00:21:43;;;;;;;15.77;11.03;;;;;;;;;;5580447;25;20467;-74
2024/04/13 00:24:10;;;;;;;13.40;11.80;;;;;;;;;;5594919;25;20226;-75
2024/04/13 00:26:41;;;;;;;13.43;11.30;;;;;;;;;;5602239;25;20583;-75
2024/04/13 00:29:06;;;;;;;13.00;11.53;;;;;;;;;;5586002;25;20507;-74
2024/04/13 00:31:35;;;;;;;12.73;11.10;;;;;;;;;;5599550;25;20982;-74
2024/04/13 00:34:01;;;;;;;12.40;10.27;;;;;;;;;;5585259;25;20268;-74
2024/04/13 00:36:29;;;;;;;13.80;9.60;;;;;;;;;;5594961;25;20600;-73
2024/04/13 00:38:55;;;;;;;14.13;10.30;;;;;;;;;;5581805;25;20515;-74
2024/04/13 00:41:23;;;;;;;12.10;10.40;;;;;;;;;;5591446;25;20466;-73
2024/04/13 00:43:51;;;;;;;12.53;11.30;;;;;;;;;;5591271;25;20281;-74
2024/04/13 00:46:23;;;;;;;13.50;11.30;;;;;;;;;;5598025;25;20489;-75
2024/04/13 00:48:49;;;;;;;14.07;11.63;;;;;;;;;;5586149;25;20508;-74
2024/04/13 00:51:18;;;;;;;12.70;11.37;;;;;;;;;;5586506;25;20450;-74
2024/04/13 00:53:43;;;;;;;14.33;11.60;;;;;;;;;;5594267;25;20272;-74
2024/04/13 00:56:12;;;;;;;13.83;11.63;;;;;;;;;;5584918;25;20823;-74
2024/04/13 00:58:40;;;;;;;14.43;11.40;;;;;;;;;;5591750;25;20226;-74
2024/04/13 01:01:12;;;;;;;12.93;10.60;;;;;;;;;;5581751;25;20484;-74
2024/04/13 01:03:38;;;;;;;16.30;12.17;;;;;;;;;;5585800;25;20508;-73
2024/04/13 01:06:08;;;;;;;13.10;11.03;;;;;;;;;;5591113;25;20454;-73
2024/04/13 01:08:34;;;;;;;12.90;10.60;;;;;;;;;;5578241;25;20594;-74
2024/04/13 01:11:02;;;;;;;13.30;11.83;;;;;;;;;;5582028;25;20924;-74
2024/04/13 01:13:30;;;;;;;13.40;12.00;;;;;;;;;;5577082;25;20470;-74
2024/04/13 01:15:58;;;;;;;12.30;11.03;;;;;;;;;;5587897;25;20511;-74
2024/04/13 01:18:29;;;;;;;13.13;11.83;;;;;;;;;;5575288;25;20514;-74
2024/04/13 01:20:57;;;;;;;13.50;11.83;;;;;;;;;;5599909;25;20539;-75
2024/04/13 01:23:26;;;;;;;13.60;11.20;;;;;;;;;;5598243;25;20537;-75
2024/04/13 01:25:54;;;;;;;19.00;11.83;;;;;;;;;;5585933;25;20448;-75
2024/04/13 01:28:22;;;;;;;17.53;12.20;;;;;;;;;;5587378;25;20450;-75
2024/04/13 01:30:48;;;;;;;15.13;12.47;;;;;;;;;;5597639;25;20509;-72
2024/04/13 01:33:16;;;;;;;12.60;11.37;;;;;;;;;;5599487;25;20520;-74
2024/04/13 01:35:41;;;;;;;14.30;11.27;;;;;;;;;;5590653;25;20278;-75
2024/04/13 01:38:10;;;;;;;17.07;11.30;;;;;;;;;;5599218;25;20458;-75
2024/04/13 01:40:35;;;;;;;13.90;12.37;;;;;;;;;;5580363;25;20297;-75
2024/04/13 01:43:06;;;;;;;17.73;10.90;;;;;;;;;;5585777;25;20585;-74
2024/04/13 01:45:32;;;;;;;15.80;11.57;;;;;;;;;;5594513;25;20287;-75
2024/04/13 01:48:00;;;;;;;13.60;10.27;;;;;;;;;;5596578;25;20463;-75
2024/04/13 01:50:25;;;;;;;20.33;11.50;;;;;;;;;;5587292;25;20257;-73
2024/04/13 01:52:53;;;;;;;16.57;11.80;;;;;;;;;;5598164;25;20466;-75
2024/04/13 01:55:19;;;;;;;16.10;12.40;;;;;;;;;;5598782;25;20250;-74
2024/04/13 01:57:48;;;;;;;15.90;12.00;;;;;;;;;;5596452;25;20456;-75
2024/04/13 02:00:16;;;;;;;15.80;11.97;;;;;;;;;;5599422;25;20226;-75
2024/04/13 02:02:44;;;;;;;12.47;10.30;;;;;;;;;;5589447;25;20522;-74
2024/04/13 02:05:10;;;;;;;15.63;12.70;;;;;;;;;;5597208;25;20454;-74
2024/04/13 02:07:38;;;;;;;15.60;11.97;;;;;;;;;;5603655;25;20970;-74
2024/04/13 02:10:06;;;;;;;13.30;11.90;;;;;;;;;;5603089;25;20557;-74
2024/04/13 02:12:34;;;;;;;13.67;12.07;;;;;;;;;;5599739;25;20470;-74
2024/04/13 02:14:59;;;;;;;16.47;13.07;;;;;;;;;;5583746;25;20517;-74
2024/04/13 02:17:31;;;;;;;15.70;13.43;;;;;;;;;;5590288;25;20468;-74
2024/04/13 02:19:56;;;;;;;18.13;12.87;;;;;;;;;;5588478;25;20234;-74
2024/04/13 02:22:27;;;;;;;17.67;12.53;;;;;;;;;;5588293;25;21014;-75
2024/04/13 02:24:52;;;;;;;15.43;12.77;;;;;;;;;;5595055;25;20269;-74
2024/04/13 02:27:20;;;;;;;21.20;13.07;;;;;;;;;;5584800;25;20470;-75
2024/04/13 02:29:47;;;;;;;15.20;13.20;;;;;;;;;;5596259;25;20265;-74
2024/04/13 02:32:16;;;;;;;19.50;13.80;;;;;;;;;;5602046;25;20518;-75
2024/04/13 02:34:44;;;;;;;15.30;13.17;;;;;;;;;;5599599;25;20466;-74
2024/04/13 02:37:12;;;;;;;15.83;13.80;;;;;;;;;;5593349;25;21086;-74
2024/04/13 02:39:39;;;;;;;15.03;13.07;;;;;;;;;;5602793;25;20533;-74
2024/04/13 02:42:07;;;;;;;17.83;14.00;;;;;;;;;;5601442;25;20475;-75
2024/04/13 02:44:33;;;;;;;16.27;12.87;;;;;;;;;;5587719;25;20463;-74
2024/04/13 02:47:01;;;;;;;18.13;14.80;;;;;;;;;;5590980;25;20557;-74
2024/04/13 02:49:27;;;;;;;18.60;13.20;;;;;;;;;;5601643;25;20274;-74
2024/04/13 02:51:57;;;;;;;13.93;12.03;;;;;;;;;;5585518;25;20470;-74
2024/04/13 02:54:23;;;;;;;17.80;12.53;;;;;;;;;;5576894;25;20229;-74
2024/04/13 02:56:51;;;;;;;17.63;13.80;;;;;;;;;;5599493;25;20466;-74
2024/04/13 02:59:17;;;;;;;17.00;12.43;;;;;;;;;;5596868;25;20238;-74
2024/04/13 03:01:45;;;;;;;18.17;12.90;;;;;;;;;;5596803;25;20549;-75
2024/04/13 03:04:10;;;;;;;15.77;12.27;;;;;;;;;;5603064;25;20226;-76
2024/04/13 03:06:39;;;;;;;15.40;13.10;;;;;;;;;;5589108;25;20498;-73
2024/04/13 03:09:07;;;;;;;19.47;13.30;;;;;;;;;;5602512;25;20729;-75
2024/04/13 03:11:36;;;;;;;15.87;13.30;;;;;;;;;;5591422;25;20602;-75
2024/04/13 03:14:01;;;;;;;16.17;12.53;;;;;;;;;;5595471;25;20573;-74
2024/04/13 03:16:30;;;;;;;13.77;12.00;;;;;;;;;;5597061;25;20471;-75
2024/04/13 03:18:56;;;;;;;16.70;13.30;;;;;;;;;;5597203;25;20234;-75
2024/04/13 03:21:24;;;;;;;14.67;11.90;;;;;;;;;;5605826;25;20562;-75
2024/04/13 03:23:50;;;;;;;15.03;11.13;;;;;;;;;;5593391;25;20231;-75
2024/04/13 03:26:20;;;;;;;14.90;11.57;;;;;;;;;;5600773;25;20534;-74
2024/04/13 03:28:46;;;;;;;12.50;11.17;;;;;;;;;;5597106;25;20756;-74
2024/04/13 03:31:14;;;;;;;14.47;12.00;;;;;;;;;;5599020;25;20463;-74
2024/04/13 03:33:40;;;;;;;15.70;12.43;;;;;;;;;;5608132;25;20245;-74
2024/04/13 03:36:08;;;;;;;16.40;13.00;;;;;;;;;;5603235;25;20572;-73
2024/04/13 03:38:36;;;;;;;18.17;11.70;;;;;;;;;;5587311;25;20334;-74
2024/04/13 03:41:05;;;;;;;15.63;11.90;;;;;;;;;;5590249;25;20455;-74
2024/04/13 03:43:36;;;;;;;12.97;11.60;;;;;;;;;;5598093;25;20523;-74
2024/04/13 03:46:03;;;;;;;17.33;13.23;;;;;;;;;;5593348;25;20600;-74
2024/04/13 03:48:31;;;;;;;14.30;11.77;;;;;;;;;;5595700;25;20451;-73
2024/04/13 03:50:56;;;;;;;17.10;10.80;;;;;;;;;;5598085;25;20526;-74
2024/04/13 03:53:24;;;;;;;14.23;11.17;;;;;;;;;;5599050;25;20543;-73
2024/04/13 03:55:50;;;;;;;17.23;11.73;;;;;;;;;;5596832;25;20234;-73
2024/04/13 03:58:18;;;;;;;14.10;10.90;;;;;;;;;;5599215;25;20467;-73
2024/04/13 04:00:46;;;;;;;14.33;11.33;;;;;;;;;;5593777;25;20228;-72
2024/04/13 04:03:15;;;;;;;17.97;11.30;;;;;;;;;;5595508;25;20462;-74
2024/04/13 04:05:40;;;;;;;13.30;10.33;;;;;;;;;;5585313;25;20463;-74
2024/04/13 04:08:09;;;;;;;17.73;10.43;;;;;;;;;;5582789;25;20464;-75
2024/04/13 04:10:35;;;;;;;13.50;10.57;;;;;;;;;;5593277;25;20272;-74
2024/04/13 04:13:05;;;;;;;12.13;10.73;;;;;;;;;;5590332;25;20459;-74
2024/04/13 04:15:32;;;;;;;13.80;10.63;;;;;;;;;;5589715;25;20337;-74
2024/04/13 04:18:03;;;;;;;17.83;11.77;;;;;;;;;;5594724;25;20466;-75
2024/04/13 04:20:30;;;;;;;17.17;11.10;;;;;;;;;;5585776;25;20450;-75
2024/04/13 04:22:58;;;;;;;12.80;10.30;;;;;;;;;;5586962;25;20481;-75
2024/04/13 04:25:24;;;;;;;17.50;10.67;;;;;;;;;;5597154;25;20439;-75
2024/04/13 04:27:52;;;;;;;14.47;10.50;;;;;;;;;;5573525;25;20515;-75
2024/04/13 04:30:18;;;;;;;11.63;10.40;;;;;;;;;;5586271;25;20307;-75
2024/04/13 04:32:46;;;;;;;14.50;11.00;;;;;;;;;;5587840;25;20584;-74
2024/04/13 04:35:14;;;;;;;13.97;10.50;;;;;;;;;;5589885;25;20237;-74
2024/04/13 04:37:43;;;;;;;15.77;11.73;;;;;;;;;;5579725;25;20468;-73
2024/04/13 04:40:09;;;;;;;12.70;10.37;;;;;;;;;;5606058;25;20522;-73
2024/04/13 04:42:37;;;;;;;12.40;10.73;;;;;;;;;;5575017;25;20523;-74
2024/04/13 04:45:04;;;;;;;14.10;11.10;;;;;;;;;;5588712;25;20507;-74
2024/04/13 04:47:32;;;;;;;16.10;11.07;;;;;;;;;;5590314;25;20463;-75
2024/04/13 04:49:58;;;;;;;14.20;11.13;;;;;;;;;;5584781;25;20521;-74
2024/04/13 04:52:29;;;;;;;14.93;9.60;;;;;;;;;;5596912;25;20458;-74
2024/04/13 04:54:59;;;;;;;19.43;11.47;;;;;;;;;;5596837;25;20242;-74
2024/04/13 04:57:27;;;;;;;15.83;10.87;;;;;;;;;;5579284;25;20872;-75
2024/04/13 04:59:52;;;;;;;13.70;10.73;;;;;;;;;;5577970;25;20534;-74
2024/04/13 05:02:21;;;;;;;13.20;11.30;;;;;;;;;;5599298;25;20516;-75
2024/04/13 05:04:46;;;;;;;13.33;11.20;;;;;;;;;;5585918;25;20231;-74
2024/04/13 05:07:14;;;;;;;13.20;11.03;;;;;;;;;;5600457;25;20458;-75
2024/04/13 05:09:42;;;;;;;14.30;12.13;;;;;;;;;;5583965;25;20319;-75
2024/04/13 05:12:11;;;;;;;10.90;9.93;;;;;;;;;;5596328;25;20474;-75
2024/04/13 05:14:37;;;;;;;17.13;11.33;;;;;;;;;;5592953;25;20461;-74
2024/04/13 05:17:05;;;;;;;11.60;9.87;;;;;;;;;;5580968;25;20516;-74
2024/04/13 05:19:31;;;;;;;12.83;10.60;;;;;;;;;;5582692;25;20230;-74
2024/04/13 05:22:04;;;;;;;16.93;10.30;;;;;;;;;;5585451;25;20586;-75
2024/04/13 05:24:29;;;;;;;11.47;10.07;;;;;;;;;;5579912;25;20273;-75
2024/04/13 05:27:05;;;;;;;12.37;10.27;;;;;;;;;;5600069;25;20458;-75
2024/04/13 05:29:31;;;;;;;15.40;10.80;;;;;;;;;;5591894;25;20269;-74
2024/04/13 05:31:59;;;;;;;18.43;9.97;;;;;;;;;;5596538;25;21057;-75
2024/04/13 05:34:25;;;;;;;14.87;9.93;;;;;;;;;;5586545;25;20242;-75
2024/04/13 05:36:53;;;;;;;11.80;9.47;;;;;;;;;;5598506;25;20503;-74
2024/04/13 05:39:18;;;;;;;9.93;8.90;;;;;;;;;;5589747;25;20298;-74
2024/04/13 05:41:46;;;;;;;12.37;9.50;;;;;;;;;;5588453;25;20467;-73
2024/04/13 05:44:15;;;;;;;10.77;9.73;;;;;;;;;;5581042;25;20261;-75
2024/04/13 05:46:43;;;;;;;9.50;8.50;;;;;;;;;;5579686;25;20466;-75
2024/04/13 05:49:08;;;;;;;10.03;9.03;;;;;;;;;;5593198;25;20458;-75
2024/04/13 05:51:37;;;;;;;12.20;9.60;;;;;;;;;;5598306;25;20887;-75
2024/04/13 05:54:02;;;;;;;14.97;8.90;;;;;;;;;;5586944;25;20228;-74
2024/04/13 05:56:30;;;;;;;11.27;10.10;;;;;;;;;;5603257;25;21059;-76
2024/04/13 05:58:56;;;;;;;10.47;8.90;;;;;;;;;;5578928;25;20362;-76
2024/04/13 06:01:28;;;;;;;11.83;9.37;;;;;;;;;;5606056;25;20462;-75
2024/04/13 06:03:53;;;;;;;10.03;9.00;;;;;;;;;;5598356;25;20311;-76
2024/04/13 06:06:22;;;;;;;16.03;9.30;;;;;;;;;;5602172;25;20490;-75
2024/04/13 06:08:48;;;;;;;13.50;10.27;;;;;;;;;;5599255;25;20234;-75
2024/04/13 06:11:16;;;;;;;9.83;8.87;;;;;;;;;;5597611;25;20888;-75
2024/04/13 06:13:41;;;;;;;10.37;9.20;;;;;;;;;;5602483;25;20226;-77
2024/04/13 06:16:10;;;;;;;10.10;9.20;;;;;;;;;;5598400;25;21104;-74
2024/04/13 06:18:38;;;;;;;13.70;10.03;;;;;;;;;;5599243;25;20362;-75
2024/04/13 06:21:07;;;;;;;10.60;9.47;;;;;;;;;;5593905;25;20616;-75
2024/04/13 06:23:32;;;;;;;12.77;8.73;;;;;;;;;;5594964;25;20473;-75
2024/04/13 06:26:00;;;;;;;10.30;8.87;;;;;;;;;;5596992;25;20454;-74
2024/04/13 06:28:26;;;;;;;10.17;9.17;;;;;;;;;;5596618;25;20272;-74
2024/04/13 06:30:55;;;;;;;10.37;9.27;;;;;;;;;;5602694;25;20452;-75
2024/04/13 06:33:20;;;;;;;9.70;8.80;;;;;;;;;;5591706;25;21288;-74
2024/04/13 06:35:53;;;;;;;8.73;7.90;;;;;;;;;;5597237;25;20700;-75
2024/04/13 06:38:23;;;;;;;12.40;9.23;;;;;;;;;;5599464;25;20231;-74
2024/04/13 06:40:51;;;;;;;8.37;7.60;;;;;;;;;;5598784;25;20474;-76
2024/04/13 06:43:17;;;;;;;11.03;8.73;;;;;;;;;;5600408;25;20577;-76
2024/04/13 06:45:46;;;;;;;9.30;8.50;;;;;;;;;;5601056;25;20466;-75
2024/04/13 06:48:13;;;;;;;8.33;7.63;;;;;;;;;;5599425;25;20268;-75
2024/04/13 06:50:42;;;;;;;8.23;7.53;;;;;;;;;;5596477;25;20462;-76
2024/04/13 06:53:10;;;;;;;11.40;8.00;;;;;;;;;;5599974;25;20462;-76
2024/04/13 06:55:38;;;;;;;8.37;7.53;;;;;;;;;;5601090;25;20506;-76
2024/04/13 06:58:04;;;;;;;8.97;7.30;;;;;;;;;;5599067;25;20507;-75
2024/04/13 07:00:32;;;;;;;9.73;8.13;;;;;;;;;;5601825;25;20454;-76
2024/04/13 07:02:58;;;;;;;11.80;8.50;;;;;;;;;;5602705;25;20265;-79
2024/04/13 07:05:26;;;;;;;9.90;7.40;;;;;;;;;;5596800;25;20474;-79
2024/04/13 07:07:52;;;;;;;9.60;7.80;;;;;;;;;;5587591;25;20261;-78
2024/04/13 07:10:22;;;;;;;8.53;7.73;;;;;;;;;;5594352;25;20529;-78
2024/04/13 07:12:48;;;;;;;8.93;8.17;;;;;;;;;;5597159;25;20354;-78
2024/04/13 07:15:16;;;;;;;8.43;7.63;;;;;;;;;;5586060;25;20467;-79
2024/04/13 07:17:42;;;;;;;8.37;7.53;;;;;;;;;;5595665;25;20230;-79
2024/04/13 07:20:11;;;;;;;8.33;7.63;;;;;;;;;;5600475;25;20992;-79
2024/04/13 07:22:36;;;;;;;7.43;6.73;;;;;;;;;;5590536;25;20272;-78
2024/04/13 07:25:05;;;;;;;8.37;7.47;;;;;;;;;;5600860;25;20585;-79
2024/04/13 07:27:33;;;;;;;7.80;7.10;;;;;;;;;;5596946;25;20242;-79
2024/04/13 07:30:01;;;;;;;9.00;8.03;;;;;;;;;;5598529;25;20514;-80
2024/04/13 07:32:27;;;;;;;8.80;7.43;;;;;;;;;;5580644;25;20527;-80
2024/04/13 07:34:56;;;;;;;8.17;7.47;;;;;;;;;;5585838;25;20543;-80
2024/04/13 07:37:22;;;;;;;7.77;7.03;;;;;;;;;;5586143;25;20523;-80
2024/04/13 07:39:50;;;;;;;8.57;7.77;;;;;;;;;;5602166;25;20562;-80
2024/04/13 07:42:16;;;;;;;8.20;7.47;;;;;;;;;;5604588;25;20470;-80
2024/04/13 07:44:47;;;;;;;8.63;7.53;;;;;;;;;;5588480;25;20517;-80
2024/04/13 07:47:12;;;;;;;7.83;7.20;;;;;;;;;;5604873;25;20233;-80
2024/04/13 07:49:41;;;;;;;8.37;7.50;;;;;;;;;;5585216;25;20522;-79
2024/04/13 07:52:06;;;;;;;7.60;6.90;;;;;;;;;;5578525;25;20277;-78
2024/04/13 07:54:35;;;;;;;7.80;7.20;;;;;;;;;;5603160;25;20466;-85
2024/04/13 07:57:01;;;;;;;9.90;8.00;;;;;;;;;;5598026;25;20234;-85
2024/04/13 07:59:29;;;;;;;7.73;7.03;;;;;;;;;;5586529;25;20458;-84
2024/04/13 08:01:57;;;;;;;7.27;6.60;;;;;;;;;;5580846;25;20240;-84
2024/04/13 08:04:25;;;;;;;7.67;7.17;;;;;;;;;;5577702;25;20475;-83
2024/04/13 08:06:51;;;;;;;8.20;7.60;;;;;;;;;;5591153;25;20547;-84
2024/04/13 08:09:19;;;;;;;8.80;7.47;;;;;;;;;;5591042;25;20546;-85
2024/04/13 08:11:45;;;;;;;7.20;6.70;;;;;;;;;;5588998;25;20281;-83
2024/04/13 08:14:13;;;;;;;8.63;7.83;;;;;;;;;;5593335;25;20454;-85
2024/04/13 08:16:38;;;;;;;7.43;6.83;;;;;;;;;;5590410;25;20552;-84
2024/04/13 08:19:09;;;;;;;7.63;6.83;;;;;;;;;;5598720;25;20527;-84
2024/04/13 08:21:35;;;;;;;7.13;6.53;;;;;;;;;;5585167;25;20231;-83
2024/04/13 08:24:03;;;;;;;7.60;6.90;;;;;;;;;;5590326;25;20454;-84
2024/04/13 08:26:29;;;;;;;8.10;7.50;;;;;;;;;;5582258;25;20231;-82
2024/04/13 08:28:57;;;;;;;7.90;7.20;;;;;;;;;;5589470;25;20447;-83
2024/04/13 08:31:23;;;;;;;7.83;7.13;;;;;;;;;;5585246;25;20281;-78
2024/04/13 08:33:51;;;;;;;7.50;7.00;;;;;;;;;;5582299;25;20471;-77
2024/04/13 08:36:19;;;;;;;7.73;7.00;;;;;;;;;;5588099;25;20231;-78
2024/04/13 08:38:47;;;;;;;8.40;7.47;;;;;;;;;;5582141;25;20459;-78
2024/04/13 08:41:17;;;;;;;8.73;7.90;;;;;;;;;;5577871;25;20518;-79
2024/04/13 08:43:45;;;;;;;8.70;7.97;;;;;;;;;;5585225;25;20466;-78
2024/04/13 08:46:11;;;;;;;9.17;8.27;;;;;;;;;;5584271;25;20533;-77
2024/04/13 08:48:40;;;;;;;8.10;7.40;;;;;;;;;;5580006;25;20494;-77
2024/04/13 08:51:06;;;;;;;7.90;7.20;;;;;;;;;;5582757;25;20276;-78
2024/04/13 08:53:38;;;;;;;8.60;7.80;;;;;;;;;;5589939;25;20556;-80
2024/04/13 08:56:05;;;;;;;7.67;7.07;;;;;;;;;;5589010;25;20464;-77
2024/04/13 08:58:33;;;;;;;8.53;7.83;;;;;;;;;;5599170;25;20512;-79
2024/04/13 09:01:00;;;;;;;7.93;7.30;;;;;;;;;;5594612;25;20522;-79
2024/04/13 09:03:30;;;;;;;8.60;7.80;;;;;;;;;;5593626;25;20471;-79
2024/04/13 09:05:55;;;;;;;8.60;7.90;;;;;;;;;;5577118;25;20470;-79
2024/04/13 09:08:24;;;;;;;8.40;7.70;;;;;;;;;;5600628;25;20514;-79
2024/04/13 09:10:55;;;;;;;14.87;8.63;;;;;;;;;;5587699;25;20367;-79
2024/04/13 09:13:23;;;;;;;8.37;7.60;;;;;;;;;;5578966;25;20512;-79
2024/04/13 09:15:48;;;;;;;8.47;7.77;;;;;;;;;;5586707;25;20456;-79
2024/04/13 09:18:17;;;;;;;8.00;7.40;;;;;;;;;;5587293;25;20493;-79
2024/04/13 09:20:43;;;;;;;8.30;7.70;;;;;;;;;;5574487;25;20897;-80
2024/04/13 09:23:11;;;;;;;8.47;7.80;;;;;;;;;;5594946;25;21010;-79
2024/04/13 09:25:37;;;;;;;8.80;7.60;;;;;;;;;;5600751;25;20454;-80
2024/04/13 09:28:08;;;;;;;8.70;7.90;;;;;;;;;;5584985;25;20505;-80
2024/04/13 09:30:33;;;;;;;9.13;8.23;;;;;;;;;;5603111;25;20607;-78
2024/04/13 09:33:03;;;;;;;8.40;7.60;;;;;;;;;;5582010;25;20588;-79
2024/04/13 09:35:28;;;;;;;8.57;7.77;;;;;;;;;;5582006;25;20239;-80
2024/04/13 09:37:58;;;;;;;8.43;7.63;;;;;;;;;;5585973;25;20543;-80
2024/04/13 09:40:24;;;;;;;9.47;8.10;;;;;;;;;;5586940;25;20278;-81
2024/04/13 09:42:52;;;;;;;10.40;7.60;;;;;;;;;;5585099;25;20567;-80
2024/04/13 09:45:20;;;;;;;8.50;7.90;;;;;;;;;;5577609;25;20239;-79
2024/04/13 09:47:49;;;;;;;8.50;7.90;;;;;;;;;;5575337;25;20471;-80
2024/04/13 09:50:14;;;;;;;8.70;7.90;;;;;;;;;;5576264;25;20462;-80
2024/04/13 09:52:43;;;;;;;9.73;8.03;;;;;;;;;;5584769;25;20510;-80
2024/04/13 09:55:09;;;;;;;8.57;7.77;;;;;;;;;;5578612;25;20293;-80
2024/04/13 09:57:38;;;;;;;8.90;7.87;;;;;;;;;;5581800;25;20509;-80
2024/04/13 10:00:07;;;;;;;7.80;7.30;;;;;;;;;;5567504;25;20463;-78
2024/04/13 10:02:38;;;;;;;9.33;7.37;;;;;;;;;;5579950;25;20800;-79
2024/04/13 10:05:04;;;;;;;11.37;8.17;;;;;;;;;;5573076;25;20460;-80
2024/04/13 10:07:33;;;;;;;8.90;8.10;;;;;;;;;;5588321;25;20569;-80
2024/04/13 10:10:00;;;;;;;8.17;7.40;;;;;;;;;;5590581;25;20507;-80
2024/04/13 10:12:31;;;;;;;9.07;8.20;;;;;;;;;;5590088;25;20450;-80
2024/04/13 10:14:58;;;;;;;8.17;7.37;;;;;;;;;;5578547;25;20467;-80
2024/04/13 10:17:27;;;;;;;8.57;7.77;;;;;;;;;;5587280;25;20543;-80
2024/04/13 10:19:55;;;;;;;8.47;7.77;;;;;;;;;;5596231;25;20533;-80
2024/04/13 10:22:25;;;;;;;9.77;8.77;;;;;;;;;;5593883;25;21081;-79
2024/04/13 10:24:51;;;;;;;10.00;7.43;;;;;;;;;;5587182;25;20459;-79
2024/04/13 10:27:23;;;;;;;9.33;8.47;;;;;;;;;;5576626;25;20524;-81
2024/04/13 10:29:51;;;;;;;12.20;8.30;;;;;;;;;;5594448;25;21216;-80
2024/04/13 10:32:20;;;;;;;9.63;8.67;;;;;;;;;;5589629;25;20459;-80
2024/04/13 10:34:46;;;;;;;11.33;8.80;;;;;;;;;;5597576;25;20525;-81
2024/04/13 10:37:35;;;;;;;9.13;8.23;;;;;;;;;;5595813;25;20454;-80
2024/04/13 10:40:01;;;;;;;9.00;8.20;;;;;;;;;;5597764;25;20234;-80
2024/04/13 10:42:35;;;;;;;9.03;8.10;;;;;;;;;;5589920;25;20520;-80
2024/04/13 10:45:02;;;;;;;8.47;7.67;;;;;;;;;;5594793;25;20466;-81
2024/04/13 10:47:32;;;;;;;8.73;7.93;;;;;;;;;;5596514;25;20519;-80
2024/04/13 10:49:58;;;;;;;9.43;7.80;;;;;;;;;;5594017;25;20458;-80
2024/04/13 10:52:27;;;;;;;8.80;7.97;;;;;;;;;;5594086;25;20556;-80
2024/04/13 10:54:58;;;;;;;8.53;7.60;;;;;;;;;;5597069;25;21007;-80
2024/04/13 10:57:26;;;;;;;7.97;7.27;;;;;;;;;;5600827;25;20509;-80
2024/04/13 10:59:52;;;;;;;9.13;8.20;;;;;;;;;;5606327;25;20456;-80
2024/04/13 11:02:20;;;;;;;10.63;7.80;;;;;;;;;;5603027;25;20510;-79
2024/04/13 11:04:46;;;;;;;7.77;7.13;;;;;;;;;;5585175;25;20272;-80
2024/04/13 11:07:15;;;;;;;8.70;8.00;;;;;;;;;;5579934;25;20462;-80
2024/04/13 11:09:41;;;;;;;8.93;8.13;;;;;;;;;;5596523;25;20239;-79
2024/04/13 11:12:14;;;;;;;8.43;7.60;;;;;;;;;;5583632;25;20456;-80
2024/04/13 11:14:42;;;;;;;7.43;6.80;;;;;;;;;;5594288;25;20468;-80
2024/04/13 11:17:08;;;;;;;8.80;7.90;;;;;;;;;;5581508;25;20549;-79
2024/04/13 11:19:38;;;;;;;9.43;7.90;;;;;;;;;;5578090;25;20562;-80
2024/04/13 11:22:04;;;;;;;8.17;7.50;;;;;;;;;;5590617;25;20567;-80
2024/04/13 11:24:33;;;;;;;7.47;6.83;;;;;;;;;;5598520;25;20454;-79
2024/04/13 11:26:59;;;;;;;7.90;7.20;;;;;;;;;;5601570;25;20462;-79
2024/04/13 11:29:30;;;;;;;8.27;7.57;;;;;;;;;;5584007;25;20516;-79
2024/04/13 11:31:55;;;;;;;12.93;8.70;;;;;;;;;;5587214;25;20459;-78
2024/04/13 11:34:25;;;;;;;9.80;7.70;;;;;;;;;;5587689;25;20526;-81
2024/04/13 11:36:59;;;;;;;9.50;7.10;;;;;;;;;;5601107;25;20360;-81
2024/04/13 11:39:28;;;;;;;7.93;7.20;;;;;;;;;;5597988;25;20474;-80
2024/04/13 11:41:53;;;;;;;8.80;8.10;;;;;;;;;;5603675;25;20470;-84
2024/04/13 11:44:21;;;;;;;8.67;7.83;;;;;;;;;;5591464;25;20825;-87
2024/04/13 11:46:50;;;;;;;8.50;7.70;;;;;;;;;;5591886;25;20226;-87
2024/04/13 11:49:18;;;;;;;8.03;7.37;;;;;;;;;;5563388;25;20460;-86
2024/04/13 11:51:44;;;;;;;8.50;7.80;;;;;;;;;;5591095;25;20482;-85
2024/04/13 11:54:12;;;;;;;9.60;6.80;;;;;;;;;;5606106;25;20496;-88
2024/04/13 11:56:42;;;;;;;10.70;7.87;;;;;;;;;;5601690;25;20238;-86
2024/04/13 11:59:10;;;;;;;8.40;7.77;;;;;;;;;;5597391;25;20450;-84
2024/04/13 12:01:36;;;;;;;8.77;7.87;;;;;;;;;;5591747;25;20626;-86
2024/04/13 12:04:07;;;;;;;8.67;7.87;;;;;;;;;;5601493;25;20862;-87
2024/04/13 12:06:34;;;;;;;7.93;7.23;;;;;;;;;;5603862;25;20276;-85
2024/04/13 12:09:02;;;;;;;8.87;7.97;;;;;;;;;;5601358;25;20466;-85
2024/04/13 12:11:30;;;;;;;7.70;7.10;;;;;;;;;;5594924;25;20575;-89
2024/04/13 12:13:58;;;;;;;9.23;7.93;;;;;;;;;;5597204;25;20464;-87
2024/04/13 12:16:24;;;;;;;8.50;7.67;;;;;;;;;;5598813;25;20590;-86
2024/04/13 12:18:56;;;;;;;8.80;8.00;;;;;;;;;;5601572;25;20454;-89
2024/04/13 12:21:25;;;;;;;8.30;6.90;;;;;;;;;;5603190;25;20242;-90
2024/04/13 12:23:54;;;;;;;7.97;7.37;;;;;;;;;;5600162;25;20572;-85
2024/04/13 12:26:19;;;;;;;7.90;7.20;;;;;;;;;;5601465;25;20451;-86
2024/04/13 12:28:48;;;;;;;7.67;7.03;;;;;;;;;;5596261;25;20462;-90
2024/04/13 12:31:14;;;;;;;9.30;7.50;;;;;;;;;;5596302;25;20798;-84
2024/04/13 12:33:43;;;;;;;7.57;7.07;;;;;;;;;;5594972;25;20475;-83
2024/04/13 12:36:09;;;;;;;8.33;7.53;;;;;;;;;;5575362;25;21379;-83
2024/04/13 12:38:40;;;;;;;9.23;7.83;;;;;;;;;;5587259;25;20447;-84
2024/04/13 12:41:06;;;;;;;8.00;7.30;;;;;;;;;;5592290;25;20513;-86
2024/04/13 12:43:34;;;;;;;6.90;6.30;;;;;;;;;;5576589;25;20472;-84
2024/04/13 12:46:00;;;;;;;7.70;7.10;;;;;;;;;;5594161;25;20268;-80
2024/04/13 12:48:28;;;;;;;8.20;7.50;;;;;;;;;;5587535;25;20474;-79
2024/04/13 12:50:53;;;;;;;7.80;7.10;;;;;;;;;;5591167;25;20433;-80
2024/04/13 12:53:22;;;;;;;7.70;6.97;;;;;;;;;;5574524;25;20452;-79
2024/04/13 12:55:52;;;;;;;7.17;6.60;;;;;;;;;;5600392;25;20281;-79
2024/04/13 12:58:21;;;;;;;12.20;7.50;;;;;;;;;;5587814;25;20542;-80
2024/04/13 13:00:46;;;;;;;7.00;6.40;;;;;;;;;;5596437;25;20458;-79
2024/04/13 13:03:14;;;;;;;7.50;6.60;;;;;;;;;;5578972;25;20476;-86
2024/04/13 13:05:41;;;;;;;7.97;7.17;;;;;;;;;;5591914;25;20256;-90
2024/04/13 13:08:09;;;;;;;8.47;7.77;;;;;;;;;;5588024;25;20462;-81
2024/04/13 13:10:35;;;;;;;7.10;6.60;;;;;;;;;;5577127;25;20452;-83
2024/04/13 13:13:06;;;;;;;6.77;6.20;;;;;;;;;;5590520;25;20470;-83
2024/04/13 13:15:31;;;;;;;6.93;6.33;;;;;;;;;;5588848;25;20260;-81
2024/04/13 13:17:59;;;;;;;9.17;6.13;;;;;;;;;;5581941;25;20470;-82
2024/04/13 13:20:25;;;;;;;6.63;6.03;;;;;;;;;;5590826;25;20281;-81
2024/04/13 13:22:53;;;;;;;6.93;6.23;;;;;;;;;;5583858;25;20478;-81
2024/04/13 13:25:19;;;;;;;6.10;5.70;;;;;;;;;;5581468;25;20235;-79
2024/04/13 13:27:47;;;;;;;7.07;6.10;;;;;;;;;;5584419;25;20689;-81
2024/04/13 13:30:15;;;;;;;7.83;6.80;;;;;;;;;;5601290;25;20238;-79
2024/04/13 13:32:44;;;;;;;7.13;6.50;;;;;;;;;;5596904;25;20444;-87
2024/04/13 13:35:10;;;;;;;7.13;6.33;;;;;;;;;;5584617;25;20780;-84
2024/04/13 13:37:38;;;;;;;6.50;5.90;;;;;;;;;;5593000;25;20450;-83
2024/04/13 13:40:04;;;;;;;7.60;7.00;;;;;;;;;;5581546;25;20300;-84
2024/04/13 13:42:33;;;;;;;6.90;6.40;;;;;;;;;;5584986;25;20467;-85
2024/04/13 13:44:58;;;;;;;6.90;6.20;;;;;;;;;;5599462;25;20942;-83
2024/04/13 13:47:29;;;;;;;6.93;6.17;;;;;;;;;;5601171;25;20469;-82
2024/04/13 13:49:54;;;;;;;7.53;6.60;;;;;;;;;;5595779;25;20363;-79
2024/04/13 13:52:23;;;;;;;7.23;6.37;;;;;;;;;;5584688;25;20467;-79
2024/04/13 13:54:48;;;;;;;7.80;6.70;;;;;;;;;;5602583;25;20228;-79
2024/04/13 13:57:16;;;;;;;7.53;6.33;;;;;;;;;;5600061;25;20463;-79
2024/04/13 13:59:42;;;;;;;6.13;5.67;;;;;;;;;;5591122;25;20375;-79
2024/04/13 14:02:10;;;;;;;7.70;6.77;;;;;;;;;;5595849;25;20466;-79
2024/04/13 14:04:38;;;;;;;8.37;6.33;;;;;;;;;;5590121;25;20231;-79
2024/04/13 14:07:07;;;;;;;7.27;6.20;;;;;;;;;;5591397;25;21130;-80
2024/04/13 14:09:32;;;;;;;6.40;5.80;;;;;;;;;;5579017;25;20572;-80
2024/04/13 14:12:00;;;;;;;6.63;6.13;;;;;;;;;;5573093;25;20457;-80
2024/04/13 14:14:26;;;;;;;6.87;6.47;;;;;;;;;;5576742;25;20708;-80
2024/04/13 14:16:54;;;;;;;6.93;6.43;;;;;;;;;;5594722;25;20522;-79
2024/04/13 14:19:20;;;;;;;6.60;6.10;;;;;;;;;;5594947;25;20231;-80
2024/04/13 14:21:50;;;;;;;6.70;6.20;;;;;;;;;;5584651;25;20536;-79
2024/04/13 14:24:16;;;;;;;7.03;6.30;;;;;;;;;;5589399;25;20234;-79
2024/04/13 14:26:44;;;;;;;7.07;6.37;;;;;;;;;;5585125;25;20561;-78
2024/04/13 14:29:10;;;;;;;7.43;6.70;;;;;;;;;;5586945;25;20627;-80
2024/04/13 14:31:38;;;;;;;7.47;6.70;;;;;;;;;;5585315;25;20512;-79
2024/04/13 14:34:04;;;;;;;7.40;6.80;;;;;;;;;;5571672;25;20240;-80